Terminal Aerodrome Forecast
Issued by NWS Wilmington, OH

Current Version | Previous Version | Graphics & Text | Print | Product List | Glossary On
Versions: 1 2 3 4 5 6 7 8 9 10 11 12 13 14 15 16 17 18 19 20 21 22 23 24
000
FTUS41 KILN 241700
TAFCVG
TAF
KCVG 241738Z 2418/2524 23012G20KT P6SM SCT120 BKN200
     FM250000 24012KT P6SM BKN050
     FM250300 25010KT P6SM OVC025
     FM251000 29008KT P6SM BKN025
     FM251500 36004KT P6SM SCT025 SCT150 BKN200=

USA.gov is the U.S. government's official web portal to all federal, state and local government web resources and services.